createdAt,value
2022-09-02T00:00:40.721Z,9.20
2022-09-02T00:01:40.803Z,8.30
2022-09-02T00:08:31.043Z,7.70
2022-09-02T00:09:31.987Z,9.00
2022-09-02T00:10:31.954Z,8.90
2022-09-02T00:11:31.960Z,8.40
2022-09-02T00:12:31.947Z,8.80
2022-09-02T00:13:31.931Z,8.40
2022-09-02T00:14:31.902Z,8.70
2022-09-02T00:15:31.914Z,8.50
2022-09-02T00:16:31.982Z,8.60
2022-09-02T00:17:31.877Z,8.30
2022-09-02T00:18:31.892Z,8.20
2022-09-02T00:19:31.898Z,8.60
2022-09-02T00:20:31.812Z,8.00
2022-09-02T00:21:31.964Z,8.60
2022-09-02T00:22:31.807Z,9.10
2022-09-02T00:23:31.865Z,9.00
2022-09-02T00:24:32.726Z,8.60
2022-09-02T00:25:31.953Z,8.40
2022-09-02T00:26:31.774Z,9.60
2022-09-02T00:27:31.775Z,9.20
2022-09-02T00:28:32.537Z,9.00
2022-09-02T00:29:31.769Z,9.20
2022-09-02T00:30:31.732Z,8.80
2022-09-02T00:31:31.902Z,9.20
2022-09-02T00:32:32.663Z,9.50
2022-09-02T00:33:31.687Z,9.60
2022-09-02T00:34:31.747Z,10.30
2022-09-02T00:35:31.690Z,9.60
2022-09-02T00:36:31.670Z,8.70
2022-09-02T00:37:31.669Z,8.60
2022-09-02T00:38:31.634Z,10.00
2022-09-02T00:39:31.627Z,9.50
2022-09-02T00:40:31.711Z,9.50
2022-09-02T00:41:31.655Z,9.50
2022-09-02T00:42:31.626Z,9.30
2022-09-02T00:43:31.598Z,11.00
2022-09-02T00:44:31.612Z,9.70
2022-09-02T00:45:31.617Z,10.00
2022-09-02T00:46:31.620Z,9.30
2022-09-02T00:47:31.569Z,10.10
2022-09-02T00:48:31.539Z,10.00
2022-09-02T00:49:31.557Z,10.20
2022-09-02T00:50:31.515Z,9.70
2022-09-02T00:51:31.561Z,9.60
2022-09-02T00:52:31.483Z,9.80
2022-09-02T00:53:31.465Z,10.20
2022-09-02T00:54:31.490Z,10.20
2022-09-02T00:55:31.514Z,9.90
2022-09-02T00:56:31.438Z,10.00
2022-09-02T00:57:31.462Z,9.90
2022-09-02T00:58:31.395Z,9.90
2022-09-02T00:59:31.418Z,10.10
2022-09-02T01:00:34.657Z,11.00
2022-09-02T01:01:31.575Z,9.90
2022-09-02T01:02:31.420Z,10.60
2022-09-02T01:03:31.380Z,10.30
2022-09-02T01:04:31.363Z,10.20
2022-09-02T01:05:31.329Z,9.70
2022-09-02T01:06:31.379Z,10.70
2022-09-02T01:07:31.987Z,10.20
2022-09-02T01:08:31.305Z,10.20
2022-09-02T01:09:31.344Z,10.30
2022-09-02T01:10:31.304Z,10.40
2022-09-02T01:11:31.259Z,9.60
2022-09-02T01:12:31.368Z,10.30
2022-09-02T01:13:31.298Z,9.80
2022-09-02T01:14:31.233Z,10.60
2022-09-02T01:15:31.242Z,10.20
2022-09-02T01:16:31.331Z,10.40
2022-09-02T01:17:31.231Z,10.80
2022-09-02T01:18:31.228Z,10.80
2022-09-02T01:19:31.240Z,10.30
2022-09-02T01:20:31.193Z,9.70
2022-09-02T01:21:32.077Z,10.90
2022-09-02T01:22:31.170Z,10.80
2022-09-02T01:23:34.648Z,11.10
2022-09-02T01:24:31.143Z,11.50
2022-09-02T01:25:31.154Z,11.00
2022-09-02T01:26:31.074Z,11.40
2022-09-02T01:27:31.080Z,11.80
2022-09-02T01:28:31.123Z,10.90
2022-09-02T01:29:31.108Z,11.00
2022-09-02T01:30:31.114Z,10.90
2022-09-02T01:31:31.111Z,10.50
2022-09-02T01:32:31.075Z,11.40
2022-09-02T01:33:31.702Z,12.50
2022-09-02T01:34:34.555Z,11.30
2022-09-02T01:35:31.014Z,11.30
2022-09-02T01:36:30.992Z,10.70
2022-09-02T01:37:30.991Z,10.40
2022-09-02T01:38:30.983Z,10.70
2022-09-02T01:39:30.979Z,10.70
2022-09-02T01:40:31.040Z,9.60
2022-09-02T01:41:30.908Z,11.20
2022-09-02T01:42:30.925Z,10.70
2022-09-02T01:43:30.957Z,12.40
2022-09-02T01:44:30.887Z,11.90
2022-09-02T01:45:30.888Z,11.30
2022-09-02T01:46:30.867Z,13.80
2022-09-02T01:47:30.876Z,11.20
2022-09-02T01:48:30.849Z,11.80
2022-09-02T01:49:30.893Z,12.30
2022-09-02T01:50:30.808Z,12.30
2022-09-02T01:51:30.812Z,11.50
2022-09-02T01:52:30.788Z,11.60
2022-09-02T01:53:30.844Z,11.50
2022-09-02T01:54:30.815Z,11.50
2022-09-02T01:55:30.791Z,11.10
2022-09-02T01:56:30.814Z,11.10
2022-09-02T01:57:30.815Z,10.60
2022-09-02T01:58:30.778Z,10.80
2022-09-02T01:59:30.781Z,10.50
2022-09-02T02:00:30.790Z,10.90
2022-09-02T02:01:30.799Z,11.00
2022-09-02T02:02:31.483Z,11.30
2022-09-02T02:03:30.705Z,11.20
2022-09-02T02:04:30.671Z,10.50
2022-09-02T02:05:31.217Z,10.40
2022-09-02T02:06:30.647Z,10.90
2022-09-02T02:07:30.686Z,10.00
2022-09-02T02:08:30.600Z,10.70
2022-09-02T02:09:30.616Z,10.30
2022-09-02T02:10:30.666Z,10.70
2022-09-02T02:11:31.311Z,10.50
2022-09-02T02:12:30.637Z,10.50
2022-09-02T02:13:30.599Z,10.90
2022-09-02T02:14:30.546Z,11.20
2022-09-02T02:16:03.615Z,10.00
2022-09-02T02:17:04.526Z,11.00
2022-09-02T02:18:04.521Z,10.50
2022-09-02T02:19:04.480Z,10.70
2022-09-02T02:20:04.505Z,10.90
2022-09-02T02:21:05.091Z,10.60
2022-09-02T02:22:04.478Z,10.90
2022-09-02T02:23:04.431Z,10.40
2022-09-02T02:24:04.419Z,11.20
2022-09-02T02:25:04.454Z,11.30
2022-09-02T02:26:04.448Z,10.50
2022-09-02T02:27:04.372Z,10.80
2022-09-02T02:28:04.385Z,10.60
2022-09-02T02:29:04.419Z,10.90
2022-09-02T02:30:04.421Z,11.20
2022-09-02T02:31:04.395Z,10.60
2022-09-02T02:32:04.355Z,11.00
2022-09-02T02:33:04.346Z,10.60
2022-09-02T02:34:04.305Z,11.40
2022-09-02T02:35:04.357Z,12.00
2022-09-02T02:36:04.330Z,10.70
2022-09-02T02:37:04.313Z,11.30
2022-09-02T02:38:04.299Z,11.30
2022-09-02T02:39:04.274Z,10.90
2022-09-02T02:40:04.284Z,11.70
2022-09-02T02:41:04.235Z,11.20
2022-09-02T02:42:04.244Z,11.50
2022-09-02T02:43:04.220Z,11.80
2022-09-02T02:44:04.217Z,12.00
2022-09-02T02:45:04.225Z,12.30
2022-09-02T02:46:04.184Z,11.50
2022-09-02T02:47:04.178Z,12.00
2022-09-02T02:48:04.192Z,10.80
2022-09-02T02:49:04.177Z,12.00
2022-09-02T02:50:04.133Z,12.00
2022-09-02T02:51:04.152Z,11.70
2022-09-02T02:52:04.170Z,10.90
2022-09-02T02:53:04.085Z,12.00
2022-09-02T02:54:04.087Z,12.10
2022-09-02T02:55:04.096Z,12.60
2022-09-02T02:56:04.077Z,12.50
2022-09-02T02:57:04.062Z,12.00
2022-09-02T02:58:04.106Z,12.50
2022-09-02T02:59:04.064Z,12.80
2022-09-02T03:00:04.030Z,12.60
2022-09-02T03:01:04.085Z,13.30
2022-09-02T03:02:04.215Z,12.80
2022-09-02T03:03:04.058Z,13.30
2022-09-02T03:04:04.004Z,12.50
2022-09-02T03:05:03.956Z,12.70
2022-09-02T03:06:03.964Z,13.10
2022-09-02T03:07:03.999Z,13.20
2022-09-02T03:08:04.000Z,12.90
2022-09-02T03:09:03.952Z,12.90
2022-09-02T03:10:03.897Z,12.80
2022-09-02T03:11:03.936Z,13.00
2022-09-02T03:12:03.928Z,13.40
2022-09-02T03:13:04.124Z,14.30
2022-09-02T03:14:03.852Z,13.80
2022-09-02T03:15:03.848Z,13.90
2022-09-02T03:16:03.898Z,14.50
2022-09-02T03:17:03.843Z,13.90
2022-09-02T03:18:03.829Z,13.70
2022-09-02T03:19:03.838Z,14.60
2022-09-02T03:20:03.820Z,14.40
2022-09-02T03:21:03.837Z,15.00
2022-09-02T03:22:03.808Z,13.40
2022-09-02T03:23:03.803Z,14.40
2022-09-02T03:24:03.771Z,14.90
2022-09-02T03:25:03.855Z,14.90
2022-09-02T03:26:03.727Z,15.10
2022-09-02T03:27:03.790Z,16.20
2022-09-02T03:28:03.715Z,15.50
2022-09-02T03:29:03.711Z,15.20
2022-09-02T03:30:04.596Z,16.00
2022-09-02T03:31:03.810Z,16.00
2022-09-02T03:32:03.715Z,16.60
2022-09-02T03:33:04.407Z,17.10
2022-09-02T03:34:03.640Z,16.10
2022-09-02T03:35:03.642Z,16.70
2022-09-02T03:36:03.629Z,17.10
2022-09-02T03:37:03.568Z,18.10
2022-09-02T03:38:03.602Z,18.20
2022-09-02T03:39:03.569Z,18.50
2022-09-02T03:40:03.595Z,18.60
2022-09-02T03:41:03.587Z,17.90
2022-09-02T03:42:03.590Z,19.10
2022-09-02T03:43:03.582Z,19.10
2022-09-02T03:44:03.543Z,20.20
2022-09-02T03:45:04.103Z,20.20
2022-09-02T03:46:03.536Z,19.40
2022-09-02T03:47:03.512Z,20.10
2022-09-02T03:48:03.503Z,20.70
2022-09-02T03:49:03.476Z,20.50
2022-09-02T03:50:03.475Z,19.70
2022-09-02T03:51:03.778Z,20.00
2022-09-02T03:52:03.426Z,20.20
2022-09-02T03:53:03.431Z,20.40
2022-09-02T03:54:03.679Z,21.70
2022-09-02T03:55:03.703Z,20.80
2022-09-02T03:56:03.404Z,21.10
2022-09-02T03:57:03.422Z,21.00
2022-09-02T03:58:06.626Z,22.00
2022-09-02T03:59:03.391Z,21.80
2022-09-02T04:00:03.372Z,22.10
2022-09-02T04:01:03.368Z,22.10
2022-09-02T04:02:03.583Z,21.50
2022-09-02T04:03:03.391Z,22.80
2022-09-02T04:04:03.321Z,23.50
2022-09-02T04:05:03.278Z,22.00
2022-09-02T04:06:03.291Z,23.20
2022-09-02T04:07:03.299Z,25.90
2022-09-02T04:08:03.303Z,25.60
2022-09-02T04:09:03.260Z,23.00
2022-09-02T04:10:03.235Z,21.70
2022-09-02T04:11:03.227Z,17.00
2022-09-02T04:12:03.182Z,22.40
2022-09-02T04:13:03.248Z,23.60
2022-09-02T04:14:03.218Z,22.20
2022-09-02T04:15:03.244Z,24.20
2022-09-02T04:16:03.207Z,25.30
2022-09-02T04:17:03.195Z,18.30
2022-09-02T04:18:03.197Z,23.50
2022-09-02T04:19:03.420Z,24.50
2022-09-02T04:20:03.116Z,23.20
2022-09-02T04:21:03.102Z,26.20
2022-09-02T04:22:03.108Z,22.00
2022-09-02T04:23:03.130Z,17.30
2022-09-02T04:24:03.143Z,22.30
2022-09-02T04:25:03.155Z,21.00
2022-09-02T04:26:03.072Z,24.90
2022-09-02T04:27:04.382Z,16.80
2022-09-02T04:28:03.060Z,19.30
2022-09-02T04:29:03.079Z,22.10
2022-09-02T04:30:03.029Z,20.60
2022-09-02T04:31:03.752Z,17.20
2022-09-02T04:32:02.996Z,15.10
2022-09-02T04:33:02.975Z,12.90
2022-09-02T04:34:02.953Z,11.90
2022-09-02T04:35:02.952Z,13.00
2022-09-02T04:36:02.957Z,20.80
2022-09-02T04:37:02.961Z,16.10
2022-09-02T04:38:02.896Z,21.70
2022-09-02T04:39:02.953Z,23.20
2022-09-02T04:40:02.934Z,23.30
2022-09-02T04:41:02.894Z,20.70
2022-09-02T04:42:02.871Z,25.60
2022-09-02T04:43:02.940Z,28.00
2022-09-02T04:44:02.890Z,28.30
2022-09-02T04:45:02.861Z,29.00
2022-09-02T04:46:02.866Z,27.90
2022-09-02T04:47:02.849Z,27.00
2022-09-02T04:48:02.794Z,28.20
2022-09-02T04:49:02.898Z,27.70
2022-09-02T04:50:02.840Z,24.70
2022-09-02T04:51:02.797Z,20.40
2022-09-02T04:52:02.748Z,25.70
2022-09-02T04:53:02.740Z,27.60
2022-09-02T04:54:02.757Z,28.50
2022-09-02T04:55:02.783Z,28.50
2022-09-02T04:56:02.721Z,29.00
2022-09-02T04:57:02.689Z,28.50
2022-09-02T04:58:02.683Z,28.60
2022-09-02T04:59:02.729Z,28.10
2022-09-02T05:00:02.702Z,27.60
2022-09-02T05:01:02.774Z,28.70
2022-09-02T05:02:02.734Z,28.30
2022-09-02T05:03:02.629Z,27.90
2022-09-02T05:04:02.623Z,28.20
2022-09-02T05:05:02.639Z,26.90
2022-09-02T05:06:02.613Z,27.80
2022-09-02T05:07:02.589Z,27.70
2022-09-02T05:08:02.563Z,27.00
2022-09-02T05:09:02.564Z,27.00
2022-09-02T05:10:02.575Z,27.10
2022-09-02T05:11:02.609Z,28.90
2022-09-02T05:12:02.553Z,26.50
2022-09-02T05:13:02.562Z,28.10
2022-09-02T05:14:02.492Z,28.00
2022-09-02T05:15:02.549Z,27.80
2022-09-02T05:16:02.617Z,27.60
2022-09-02T05:17:07.251Z,27.70
2022-09-02T05:18:03.820Z,28.50
2022-09-02T05:19:02.523Z,27.30
2022-09-02T05:20:02.463Z,25.90
2022-09-02T05:21:02.438Z,26.90
2022-09-02T05:22:02.386Z,27.10
2022-09-02T05:23:02.451Z,26.50
2022-09-02T05:24:02.442Z,27.30
2022-09-02T05:25:02.698Z,26.50
2022-09-02T05:26:02.401Z,26.00
2022-09-02T05:27:02.340Z,25.60
2022-09-02T05:28:02.366Z,25.10
2022-09-02T05:29:02.329Z,25.40
2022-09-02T05:30:02.337Z,25.60
2022-09-02T05:31:02.396Z,25.30
2022-09-02T05:32:02.314Z,24.40
2022-09-02T05:33:02.304Z,25.40
2022-09-02T05:34:02.266Z,24.80
2022-09-02T05:35:02.302Z,23.10
2022-09-02T05:36:02.263Z,24.00
2022-09-02T05:37:02.283Z,23.30
2022-09-02T05:38:02.257Z,24.10
2022-09-02T05:39:02.271Z,22.50
2022-09-02T05:40:02.258Z,22.50
2022-09-02T05:41:02.224Z,22.80
2022-09-02T05:42:02.236Z,22.70
2022-09-02T05:43:02.238Z,23.50
2022-09-02T05:44:03.722Z,22.90
2022-09-02T05:45:02.191Z,23.80
2022-09-02T05:46:02.219Z,22.50
2022-09-02T05:47:02.125Z,24.10
2022-09-02T05:48:02.141Z,23.60
2022-09-02T05:49:02.154Z,22.70
2022-09-02T05:50:02.085Z,23.70
2022-09-02T05:51:02.068Z,23.00
2022-09-02T05:52:02.130Z,22.20
2022-09-02T05:53:02.046Z,21.40
2022-09-02T05:54:02.052Z,21.70
2022-09-02T05:55:02.086Z,21.20
2022-09-02T05:56:02.087Z,22.80
2022-09-02T05:57:02.006Z,21.40
2022-09-02T05:58:02.030Z,21.80
2022-09-02T05:59:01.990Z,21.50
2022-09-02T06:00:01.966Z,20.60
2022-09-02T06:01:02.039Z,20.70
2022-09-02T06:02:02.040Z,20.50
2022-09-02T06:03:02.014Z,20.60
2022-09-02T06:04:01.961Z,21.00
2022-09-02T06:05:01.942Z,20.20
2022-09-02T06:06:06.616Z,19.30
2022-09-02T06:07:01.961Z,20.40
2022-09-02T06:08:01.945Z,20.10
2022-09-02T06:09:01.882Z,19.60
2022-09-02T06:10:01.848Z,20.10
2022-09-02T06:11:01.900Z,19.00
2022-09-02T06:12:01.864Z,19.00
2022-09-02T06:13:01.906Z,18.80
2022-09-02T06:14:01.831Z,18.20
2022-09-02T06:15:01.780Z,18.90
2022-09-02T06:16:01.938Z,18.60
2022-09-02T06:17:01.792Z,19.30
2022-09-02T06:18:01.787Z,18.80
2022-09-02T06:19:01.812Z,18.30
2022-09-02T06:20:01.791Z,18.20
2022-09-02T06:21:01.738Z,17.70
2022-09-02T06:22:01.729Z,18.00
2022-09-02T06:23:01.691Z,17.10
2022-09-02T06:24:01.740Z,17.50
2022-09-02T06:25:01.687Z,17.70
2022-09-02T06:26:01.703Z,16.60
2022-09-02T06:27:01.688Z,15.90
2022-09-02T06:28:06.434Z,14.90
2022-09-02T06:29:01.681Z,15.10
2022-09-02T06:30:01.653Z,14.90
2022-09-02T06:31:01.738Z,15.40
2022-09-02T06:32:01.646Z,13.20
2022-09-02T06:33:01.626Z,12.30
2022-09-02T06:34:01.600Z,10.70
2022-09-02T06:35:01.631Z,12.00
2022-09-02T06:36:01.573Z,13.20
2022-09-02T06:37:01.591Z,11.10
2022-09-02T06:38:01.559Z,13.00
2022-09-02T06:39:01.601Z,11.50
2022-09-02T06:40:01.583Z,11.20
2022-09-02T06:41:01.503Z,9.90
2022-09-02T06:42:01.512Z,12.20
2022-09-02T06:43:01.591Z,12.90
2022-09-02T06:44:01.486Z,8.90
2022-09-02T06:45:01.513Z,11.10
2022-09-02T06:46:01.533Z,9.10
2022-09-02T06:47:01.475Z,10.00
2022-09-02T06:48:01.420Z,9.60
2022-09-02T06:49:01.485Z,11.20
2022-09-02T06:50:01.445Z,9.10
2022-09-02T06:51:01.451Z,8.70
2022-09-02T06:52:01.434Z,8.00
2022-09-02T06:53:01.388Z,8.80
2022-09-02T06:54:02.113Z,8.90
2022-09-02T06:55:01.422Z,7.60
2022-09-02T06:56:01.378Z,7.90
2022-09-02T06:57:01.320Z,7.50
2022-09-02T06:58:01.293Z,7.60
2022-09-02T06:59:01.293Z,7.70
2022-09-02T07:00:02.198Z,6.80
2022-09-02T07:01:01.395Z,7.20
2022-09-02T07:02:01.515Z,7.20
2022-09-02T07:03:01.245Z,7.30
2022-09-02T07:04:01.350Z,7.00
2022-09-02T07:05:01.294Z,6.00
2022-09-02T07:06:01.282Z,6.70
2022-09-02T07:07:01.291Z,6.10
2022-09-02T07:08:01.220Z,6.30
2022-09-02T07:09:01.184Z,6.20
2022-09-02T07:10:01.167Z,6.70
2022-09-02T07:11:01.198Z,6.30
2022-09-02T07:12:04.555Z,6.30
2022-09-02T07:13:01.135Z,6.20
2022-09-02T07:14:01.138Z,6.10
2022-09-02T07:15:01.150Z,6.20
2022-09-02T07:16:01.098Z,6.50
2022-09-02T07:17:01.199Z,6.50
2022-09-02T07:18:01.110Z,5.60
2022-09-02T07:19:01.087Z,6.70
2022-09-02T07:20:01.701Z,6.90
2022-09-02T07:21:01.082Z,7.30
2022-09-02T07:22:01.075Z,6.50
2022-09-02T07:23:01.032Z,7.40
2022-09-02T07:24:01.028Z,7.70
2022-09-02T07:25:01.057Z,7.10
2022-09-02T07:26:01.047Z,6.30
2022-09-02T07:27:00.978Z,6.10
2022-09-02T07:28:00.971Z,7.40
2022-09-02T07:29:00.966Z,7.00
2022-09-02T07:30:00.921Z,7.10
2022-09-02T07:31:01.053Z,6.70
2022-09-02T07:32:00.980Z,7.00
2022-09-02T07:33:00.934Z,7.30
2022-09-02T07:34:00.898Z,7.20
2022-09-02T07:35:00.954Z,7.50
2022-09-02T07:36:00.875Z,7.20
2022-09-02T07:37:05.077Z,7.40
2022-09-02T07:38:00.885Z,7.50
2022-09-02T07:39:00.853Z,8.20
2022-09-02T07:40:00.844Z,7.30
2022-09-02T07:41:00.863Z,7.10
2022-09-02T07:42:00.849Z,8.30
2022-09-02T07:43:01.057Z,9.90
2022-09-02T07:44:00.805Z,11.20
2022-09-02T07:45:00.826Z,13.80
2022-09-02T07:46:00.873Z,18.00
2022-09-02T07:47:00.772Z,17.40
2022-09-02T07:48:00.754Z,16.10
2022-09-02T07:49:01.022Z,15.50
2022-09-02T07:51:00.719Z,14.80
2022-09-02T07:52:00.766Z,13.80
2022-09-02T07:53:00.714Z,12.90
2022-09-02T07:54:00.692Z,14.50
2022-09-02T07:55:00.708Z,11.60
2022-09-02T07:56:00.678Z,12.60
2022-09-02T07:57:00.659Z,11.80
2022-09-02T07:58:00.708Z,10.80
2022-09-02T07:59:00.651Z,11.10
2022-09-02T08:00:00.617Z,10.10
2022-09-02T08:01:00.729Z,9.60
2022-09-02T08:02:00.666Z,9.80
2022-09-02T08:03:00.878Z,9.70
2022-09-02T08:04:02.846Z,10.40
2022-09-02T08:05:00.563Z,9.90
2022-09-02T08:06:00.563Z,10.20
2022-09-02T08:07:00.594Z,10.30
2022-09-02T08:08:00.566Z,10.50
2022-09-02T08:09:00.493Z,10.50
2022-09-02T08:10:00.481Z,10.30
2022-09-02T08:11:59.455Z,10.50
2022-09-02T08:13:00.492Z,11.40
2022-09-02T08:14:00.451Z,11.00
2022-09-02T08:15:00.445Z,11.50
2022-09-02T08:16:00.388Z,11.50
2022-09-02T08:17:00.559Z,10.80
2022-09-02T08:18:00.457Z,11.20
2022-09-02T08:19:00.410Z,11.80
2022-09-02T08:20:00.367Z,11.40
2022-09-02T08:21:00.357Z,10.30
2022-09-02T08:22:00.365Z,10.60
2022-09-02T08:23:10.652Z,9.90
2022-09-02T08:24:00.365Z,10.10
2022-09-02T08:25:00.352Z,10.70
2022-09-02T08:26:00.356Z,10.20
2022-09-02T08:27:00.309Z,9.90
2022-09-02T08:28:00.304Z,10.30
2022-09-02T08:29:00.322Z,9.60
2022-09-02T08:30:00.300Z,9.40
2022-09-02T08:31:00.260Z,9.90
2022-09-02T08:32:00.295Z,9.90
2022-09-02T08:33:00.262Z,9.40
2022-09-02T08:34:00.231Z,9.50
2022-09-02T08:35:00.292Z,9.50
2022-09-02T08:36:00.238Z,9.70
2022-09-02T08:37:00.206Z,9.00
2022-09-02T08:38:01.516Z,9.40
2022-09-02T08:39:00.165Z,8.60
2022-09-02T08:40:00.193Z,9.20
2022-09-02T08:41:00.147Z,8.30
2022-09-02T08:42:03.346Z,8.40
2022-09-02T08:43:00.139Z,8.40
2022-09-02T08:44:00.103Z,8.00
2022-09-02T08:45:00.141Z,8.90
2022-09-02T08:46:00.174Z,8.80
2022-09-02T08:47:00.111Z,9.10
2022-09-02T08:48:00.060Z,8.60
2022-09-02T08:49:00.237Z,8.20
2022-09-02T08:50:00.059Z,8.50
2022-09-02T08:51:00.061Z,9.30
2022-09-02T08:52:00.989Z,8.70
2022-09-02T08:53:00.059Z,8.70
2022-09-02T08:54:00.004Z,8.60
2022-09-02T08:55:00.053Z,8.40
2022-09-02T08:55:59.975Z,8.00
2022-09-02T08:56:59.988Z,8.00
2022-09-02T08:58:00.022Z,7.60
2022-09-02T08:58:59.958Z,8.80
2022-09-02T08:59:59.945Z,8.90
2022-09-02T09:01:00.029Z,8.80
2022-09-02T09:02:01.027Z,8.40
2022-09-02T09:02:59.892Z,8.50
2022-09-02T09:03:59.903Z,8.30
2022-09-02T10:16:45.943Z,12.20
2022-09-02T10:17:46.598Z,10.90
2022-09-02T10:18:49.141Z,11.30
2022-09-02T10:19:46.590Z,12.10
2022-09-02T10:20:58.563Z,11.10
2022-09-02T10:21:46.564Z,11.90
2022-09-02T10:23:00.101Z,11.60
2022-09-02T10:23:46.550Z,12.40
2022-09-02T10:24:46.515Z,12.40
2022-09-02T10:25:46.513Z,13.30
2022-09-02T10:26:46.499Z,11.70
2022-09-02T10:27:46.530Z,11.60
2022-09-02T10:28:46.516Z,11.60
2022-09-02T10:29:46.472Z,12.40
2022-09-02T10:30:46.458Z,12.30
2022-09-02T10:31:47.133Z,11.90
2022-09-02T10:32:46.402Z,12.40
2022-09-02T10:33:46.409Z,12.20
2022-09-02T10:34:46.431Z,11.90
2022-09-02T10:35:46.373Z,11.60
2022-09-02T10:36:46.419Z,11.90
2022-09-02T10:37:46.373Z,12.20
2022-09-02T10:38:46.328Z,12.90
2022-09-02T10:39:46.355Z,12.30
2022-09-02T10:40:46.450Z,13.10
2022-09-02T10:42:46.326Z,14.00
2022-09-02T10:43:46.313Z,13.60
2022-09-02T10:44:46.316Z,13.00
2022-09-02T10:45:46.309Z,13.40
2022-09-02T10:46:46.353Z,13.40
2022-09-02T10:47:46.288Z,13.40
2022-09-02T10:48:46.221Z,13.00
2022-09-02T10:49:46.225Z,13.40
2022-09-02T10:50:48.134Z,14.30
2022-09-02T10:51:46.210Z,13.00
2022-09-02T10:52:46.207Z,14.00
2022-09-02T10:53:46.169Z,13.80
2022-09-02T10:54:46.163Z,13.40
2022-09-02T10:55:46.156Z,13.20
2022-09-02T10:56:46.186Z,14.10
2022-09-02T10:57:46.154Z,13.50
2022-09-02T10:58:46.212Z,13.00
2022-09-02T10:59:46.128Z,13.10
2022-09-02T11:00:46.153Z,13.90
2022-09-02T11:01:46.125Z,13.40
2022-09-02T11:02:46.134Z,14.90
2022-09-02T11:03:46.149Z,13.50
2022-09-02T11:04:46.058Z,13.20
2022-09-02T11:05:46.072Z,13.80
2022-09-02T11:07:01.494Z,12.20
2022-09-02T11:07:46.381Z,12.10
2022-09-02T11:08:46.003Z,11.00
2022-09-02T11:09:46.017Z,12.50
2022-09-02T11:10:46.054Z,12.10
2022-09-02T11:11:46.030Z,12.30
2022-09-02T11:12:45.968Z,12.60
2022-09-02T11:13:45.984Z,12.60
2022-09-02T11:14:45.959Z,12.10
2022-09-02T11:15:46.039Z,11.00
2022-09-02T11:16:45.992Z,11.20
2022-09-02T11:17:45.917Z,11.70
2022-09-02T11:18:45.901Z,11.60
2022-09-02T11:19:45.902Z,10.70
2022-09-02T11:20:45.915Z,10.50
2022-09-02T11:21:46.135Z,10.20
2022-09-02T11:22:45.850Z,9.80
2022-09-02T11:23:45.864Z,11.40
2022-09-02T11:24:46.622Z,10.60
2022-09-02T11:25:45.844Z,10.10
2022-09-02T11:26:45.833Z,9.90
2022-09-02T11:27:45.866Z,9.40
2022-09-02T11:28:45.784Z,9.40
2022-09-02T11:29:45.829Z,10.10
2022-09-02T11:30:45.817Z,10.60
2022-09-02T11:31:45.761Z,10.00
2022-09-02T11:32:45.768Z,10.40
2022-09-02T11:33:45.738Z,9.60
2022-09-02T11:34:45.737Z,10.30
2022-09-02T11:35:45.690Z,10.50
2022-09-02T11:36:45.642Z,10.50
2022-09-02T11:37:45.708Z,10.40
2022-09-02T11:38:45.704Z,10.30
2022-09-02T11:39:59.168Z,10.80
2022-09-02T11:40:46.047Z,12.00
2022-09-02T11:41:45.745Z,11.60
2022-09-02T11:42:45.672Z,9.90
2022-09-02T11:43:45.682Z,10.30
2022-09-02T11:44:52.349Z,11.30
2022-09-02T11:45:45.721Z,9.40
2022-09-02T11:46:45.642Z,10.00
2022-09-02T11:47:46.009Z,10.80
2022-09-02T11:48:46.247Z,10.60
2022-09-02T11:49:45.551Z,10.20
2022-09-02T11:50:45.569Z,10.10
2022-09-02T11:51:45.584Z,9.50
2022-09-02T11:52:45.538Z,9.90
2022-09-02T11:53:45.507Z,9.40
2022-09-02T11:54:45.488Z,10.50
2022-09-02T11:55:46.682Z,9.30
2022-09-02T11:56:45.492Z,8.80
2022-09-02T11:57:45.632Z,8.30
2022-09-02T11:58:45.537Z,7.80
2022-09-02T11:59:45.423Z,8.00
2022-09-02T12:00:45.483Z,8.50
2022-09-02T12:01:46.286Z,8.50
2022-09-02T12:02:46.353Z,8.90
2022-09-02T12:04:06.735Z,8.40
2022-09-02T12:04:59.871Z,8.30
2022-09-02T12:05:46.459Z,8.20
2022-09-02T12:06:45.448Z,8.40
2022-09-02T12:07:45.393Z,8.70
2022-09-02T12:08:45.369Z,7.50
2022-09-02T12:09:45.417Z,8.80
2022-09-02T12:10:45.355Z,7.50
2022-09-02T12:11:45.379Z,7.50
2022-09-02T12:12:46.177Z,8.20
2022-09-02T12:13:45.353Z,7.90
2022-09-02T12:14:45.302Z,8.20
2022-09-02T12:15:45.334Z,7.20
2022-09-02T12:16:45.877Z,6.20
2022-09-02T12:17:45.260Z,6.50
2022-09-02T12:18:45.232Z,5.80
2022-09-02T12:19:45.835Z,5.60
2022-09-02T12:20:49.213Z,6.90
2022-09-02T12:21:45.261Z,5.50
2022-09-02T12:22:45.192Z,6.40
2022-09-02T12:23:45.201Z,6.20
2022-09-02T12:24:45.211Z,5.50
2022-09-02T12:25:45.171Z,5.70
2022-09-02T12:26:45.191Z,5.60
2022-09-02T12:27:45.181Z,6.30
2022-09-02T12:28:45.141Z,6.10
2022-09-02T12:29:45.119Z,5.50
2022-09-02T12:30:45.143Z,5.60
2022-09-02T12:31:45.159Z,4.70
2022-09-02T12:32:45.118Z,3.80
2022-09-02T12:33:45.098Z,4.00
2022-09-02T12:34:45.091Z,3.70
2022-09-02T12:35:45.103Z,2.80
2022-09-02T12:36:45.822Z,3.50
2022-09-02T12:37:45.019Z,4.60
2022-09-02T12:38:45.069Z,3.30
2022-09-02T12:39:45.065Z,5.20
2022-09-02T12:40:45.049Z,3.50
2022-09-02T12:41:45.025Z,3.30
2022-09-02T12:42:46.751Z,2.80
2022-09-02T12:43:44.956Z,3.20
2022-09-02T12:44:44.953Z,3.00
2022-09-02T12:45:44.987Z,3.00
2022-09-02T12:46:45.001Z,3.10
2022-09-02T12:47:44.968Z,3.10
2022-09-02T12:48:44.901Z,4.30
2022-09-02T12:49:44.943Z,3.10
2022-09-02T12:50:44.922Z,3.20
2022-09-02T12:51:44.967Z,3.50
2022-09-02T12:52:45.027Z,3.50
2022-09-02T12:53:44.870Z,3.50
2022-09-02T12:54:44.883Z,2.70
2022-09-02T12:55:44.913Z,3.00
2022-09-02T12:56:44.877Z,3.30
2022-09-02T12:57:45.542Z,3.10
2022-09-02T12:58:44.817Z,3.90
2022-09-02T12:59:44.800Z,3.80
2022-09-02T13:00:44.795Z,3.30
2022-09-02T13:01:44.952Z,3.70
2022-09-02T13:02:45.369Z,3.20
2022-09-02T13:03:44.782Z,3.10
2022-09-02T13:04:44.766Z,3.50
2022-09-02T13:05:44.768Z,3.10
2022-09-02T13:06:44.763Z,4.00
2022-09-02T13:07:44.734Z,3.50
2022-09-02T13:08:44.751Z,3.80
2022-09-02T13:09:44.716Z,2.90
2022-09-02T13:10:44.714Z,3.60
2022-09-02T13:11:44.667Z,3.60
2022-09-02T13:12:45.436Z,3.90
2022-09-02T13:13:44.623Z,3.60
2022-09-02T13:14:44.761Z,3.70
2022-09-02T13:15:44.689Z,3.70
2022-09-02T13:16:44.665Z,3.20
2022-09-02T13:17:44.656Z,3.50
2022-09-02T13:18:44.652Z,3.80
2022-09-02T13:19:44.601Z,3.20
2022-09-02T13:20:44.587Z,3.70
2022-09-02T13:21:44.617Z,3.50
2022-09-02T13:22:44.602Z,3.70
2022-09-02T13:23:44.591Z,3.70
2022-09-02T13:24:44.613Z,3.80
2022-09-02T13:25:44.506Z,3.60
2022-09-02T13:26:49.825Z,3.80
2022-09-02T13:27:44.557Z,3.40
2022-09-02T13:28:44.523Z,3.50
2022-09-02T13:29:44.458Z,3.60
2022-09-02T13:30:44.495Z,3.70
2022-09-02T13:31:44.474Z,3.80
2022-09-02T13:32:44.445Z,3.90
2022-09-02T13:33:44.706Z,4.00
2022-09-02T13:34:44.474Z,3.60
2022-09-02T13:35:44.398Z,3.90
2022-09-02T13:36:44.442Z,3.50
2022-09-02T13:37:45.163Z,3.50
2022-09-02T13:38:44.469Z,3.50
2022-09-02T13:39:44.400Z,3.90
2022-09-02T13:40:46.138Z,3.90
2022-09-02T13:41:44.344Z,3.80
2022-09-02T13:42:44.375Z,4.00
2022-09-02T13:43:44.306Z,3.50
2022-09-02T13:44:44.320Z,4.20
2022-09-02T13:45:44.328Z,3.80
2022-09-02T13:46:44.271Z,3.90
2022-09-02T13:47:44.293Z,3.70
2022-09-02T13:48:44.337Z,3.40
2022-09-02T13:49:44.266Z,3.40
2022-09-02T13:50:44.308Z,3.50
2022-09-02T13:51:44.235Z,4.40
2022-09-02T13:53:34.256Z,3.30
2022-09-02T13:54:20.719Z,3.40
2022-09-02T13:54:44.251Z,3.70
2022-09-02T13:55:44.253Z,3.40
2022-09-02T13:56:44.221Z,3.60
2022-09-02T13:57:44.190Z,3.40
2022-09-02T13:58:44.179Z,3.20
2022-09-02T13:59:44.180Z,3.30
2022-09-02T14:00:44.248Z,3.40
2022-09-02T14:01:44.327Z,3.90
2022-09-02T14:02:44.243Z,3.60
2022-09-02T14:03:44.228Z,3.50
2022-09-02T14:04:44.133Z,3.10
2022-09-02T14:05:47.469Z,3.70
2022-09-02T14:06:44.103Z,3.20
2022-09-02T14:07:44.103Z,3.80
2022-09-02T14:08:44.072Z,3.90
2022-09-02T14:09:44.089Z,4.50
2022-09-02T14:10:44.080Z,4.60
2022-09-02T14:11:44.037Z,3.50
2022-09-02T14:12:44.055Z,3.80
2022-09-02T14:13:44.010Z,4.20
2022-09-02T14:14:44.009Z,6.30
2022-09-02T14:15:44.078Z,7.00
2022-09-02T14:16:44.003Z,5.90
2022-09-02T14:17:43.974Z,5.50
2022-09-02T14:18:43.962Z,4.20
2022-09-02T14:19:43.996Z,3.00
2022-09-02T14:20:43.957Z,3.80
2022-09-02T14:21:43.961Z,10.80
2022-09-02T14:22:43.920Z,5.10
2022-09-02T14:23:43.896Z,5.60